sensor_id;sensor_type;location;lat;lon;timestamp;P1;durP1;ratioP1;P2;durP2;ratioP2
56083;SDS011;41958;52.416;13.428;2022-09-12T00:02:10;5.53;;;4.15;;
56083;SDS011;41958;52.416;13.428;2022-09-12T00:04:35;5.85;;;4.78;;
56083;SDS011;41958;52.416;13.428;2022-09-12T00:07:00;5.50;;;4.20;;
56083;SDS011;41958;52.416;13.428;2022-09-12T00:09:25;5.60;;;4.30;;
56083;SDS011;41958;52.416;13.428;2022-09-12T00:11:51;7.25;;;4.10;;
56083;SDS011;41958;52.416;13.428;2022-09-12T00:14:17;7.25;;;4.43;;
56083;SDS011;41958;52.416;13.428;2022-09-12T00:16:43;5.13;;;4.63;;
56083;SDS011;41958;52.416;13.428;2022-09-12T00:19:09;5.40;;;4.40;;
56083;SDS011;41958;52.416;13.428;2022-09-12T00:21:36;5.97;;;4.50;;
56083;SDS011;41958;52.416;13.428;2022-09-12T00:24:02;5.13;;;4.63;;
56083;SDS011;41958;52.416;13.428;2022-09-12T00:26:28;4.68;;;4.25;;
56083;SDS011;41958;52.416;13.428;2022-09-12T00:28:54;5.63;;;4.55;;
56083;SDS011;41958;52.416;13.428;2022-09-12T00:31:20;5.55;;;4.50;;
56083;SDS011;41958;52.416;13.428;2022-09-12T00:33:50;6.45;;;4.70;;
56083;SDS011;41958;52.416;13.428;2022-09-12T00:36:17;5.47;;;4.78;;
56083;SDS011;41958;52.416;13.428;2022-09-12T00:38:45;5.57;;;4.47;;
56083;SDS011;41958;52.416;13.428;2022-09-12T00:41:18;6.43;;;4.60;;
56083;SDS011;41958;52.416;13.428;2022-09-12T00:43:47;5.25;;;4.55;;
56083;SDS011;41958;52.416;13.428;2022-09-12T00:46:37;5.75;;;4.68;;
56083;SDS011;41958;52.416;13.428;2022-09-12T00:49:11;5.32;;;4.40;;
56083;SDS011;41958;52.416;13.428;2022-09-12T00:51:41;7.43;;;4.50;;
56083;SDS011;41958;52.416;13.428;2022-09-12T00:54:14;8.00;;;4.57;;
56083;SDS011;41958;52.416;13.428;2022-09-12T00:56:43;5.38;;;4.30;;
56083;SDS011;41958;52.416;13.428;2022-09-12T00:59:11;7.50;;;4.32;;
56083;SDS011;41958;52.416;13.428;2022-09-12T01:01:41;5.47;;;4.63;;
56083;SDS011;41958;52.416;13.428;2022-09-12T01:04:10;5.32;;;4.43;;
56083;SDS011;41958;52.416;13.428;2022-09-12T01:06:39;6.57;;;4.60;;
56083;SDS011;41958;52.416;13.428;2022-09-12T01:09:05;5.15;;;4.57;;
56083;SDS011;41958;52.416;13.428;2022-09-12T01:11:36;5.93;;;4.57;;
56083;SDS011;41958;52.416;13.428;2022-09-12T01:14:03;5.72;;;4.30;;
56083;SDS011;41958;52.416;13.428;2022-09-12T01:16:28;6.85;;;4.90;;
56083;SDS011;41958;52.416;13.428;2022-09-12T01:18:57;6.53;;;4.72;;
56083;SDS011;41958;52.416;13.428;2022-09-12T01:21:34;5.82;;;4.28;;
56083;SDS011;41958;52.416;13.428;2022-09-12T01:24:13;6.93;;;5.28;;
56083;SDS011;41958;52.416;13.428;2022-09-12T01:27:14;5.80;;;4.75;;
56083;SDS011;41958;52.416;13.428;2022-09-12T01:38:37;6.15;;;4.32;;
56083;SDS011;41958;52.416;13.428;2022-09-12T01:44:05;5.90;;;4.57;;
56083;SDS011;41958;52.416;13.428;2022-09-12T01:46:43;6.03;;;4.20;;
56083;SDS011;41958;52.416;13.428;2022-09-12T01:49:21;4.22;;;3.83;;
56083;SDS011;41958;52.416;13.428;2022-09-12T01:51:54;5.90;;;4.38;;
56083;SDS011;41958;52.416;13.428;2022-09-12T01:54:44;6.10;;;4.50;;
56083;SDS011;41958;52.416;13.428;2022-09-12T01:57:34;5.78;;;4.20;;
56083;SDS011;41958;52.416;13.428;2022-09-12T02:00:06;4.93;;;4.07;;
56083;SDS011;41958;52.416;13.428;2022-09-12T02:02:43;5.25;;;3.97;;
56083;SDS011;41958;52.416;13.428;2022-09-12T02:05:17;5.38;;;4.45;;
56083;SDS011;41958;52.416;13.428;2022-09-12T02:08:06;6.97;;;4.47;;
56083;SDS011;41958;52.416;13.428;2022-09-12T02:10:46;5.55;;;4.60;;
56083;SDS011;41958;52.416;13.428;2022-09-12T02:13:28;5.22;;;4.18;;
56083;SDS011;41958;52.416;13.428;2022-09-12T02:16:03;5.72;;;4.70;;
56083;SDS011;41958;52.416;13.428;2022-09-12T02:18:33;7.13;;;4.32;;
56083;SDS011;41958;52.416;13.428;2022-09-12T02:21:04;5.22;;;4.25;;
56083;SDS011;41958;52.416;13.428;2022-09-12T02:23:30;5.53;;;4.05;;
56083;SDS011;41958;52.416;13.428;2022-09-12T02:26:06;6.30;;;4.40;;
56083;SDS011;41958;52.416;13.428;2022-09-12T02:28:38;4.65;;;4.03;;
56083;SDS011;41958;52.416;13.428;2022-09-12T02:34:08;6.00;;;4.35;;
56083;SDS011;41958;52.416;13.428;2022-09-12T02:39:10;5.10;;;3.60;;
56083;SDS011;41958;52.416;13.428;2022-09-12T02:41:35;5.00;;;3.90;;
56083;SDS011;41958;52.416;13.428;2022-09-12T02:44:01;5.20;;;3.92;;
56083;SDS011;41958;52.416;13.428;2022-09-12T02:46:28;6.55;;;4.43;;
56083;SDS011;41958;52.416;13.428;2022-09-12T02:49:02;6.07;;;4.40;;
56083;SDS011;41958;52.416;13.428;2022-09-12T02:51:28;4.85;;;4.13;;
56083;SDS011;41958;52.416;13.428;2022-09-12T02:53:54;7.32;;;4.18;;
56083;SDS011;41958;52.416;13.428;2022-09-12T02:56:23;5.75;;;4.20;;
56083;SDS011;41958;52.416;13.428;2022-09-12T02:58:51;5.35;;;3.83;;
56083;SDS011;41958;52.416;13.428;2022-09-12T03:07:10;4.88;;;4.05;;
56083;SDS011;41958;52.416;13.428;2022-09-12T03:09:45;5.35;;;3.95;;
56083;SDS011;41958;52.416;13.428;2022-09-12T03:18:14;5.20;;;4.32;;
56083;SDS011;41958;52.416;13.428;2022-09-12T03:21:08;4.90;;;3.83;;
56083;SDS011;41958;52.416;13.428;2022-09-12T03:23:44;5.63;;;4.28;;
56083;SDS011;41958;52.416;13.428;2022-09-12T03:26:24;5.85;;;4.55;;
56083;SDS011;41958;52.416;13.428;2022-09-12T03:28:52;5.60;;;4.15;;
56083;SDS011;41958;52.416;13.428;2022-09-12T03:31:19;5.32;;;4.03;;
56083;SDS011;41958;52.416;13.428;2022-09-12T03:33:45;6.47;;;4.95;;
56083;SDS011;41958;52.416;13.428;2022-09-12T03:36:14;7.13;;;4.90;;
56083;SDS011;41958;52.416;13.428;2022-09-12T03:38:42;6.50;;;4.63;;
56083;SDS011;41958;52.416;13.428;2022-09-12T03:41:07;6.28;;;4.72;;
56083;SDS011;41958;52.416;13.428;2022-09-12T03:43:32;6.63;;;4.55;;
56083;SDS011;41958;52.416;13.428;2022-09-12T03:45:58;5.95;;;4.32;;
56083;SDS011;41958;52.416;13.428;2022-09-12T03:48:23;5.20;;;4.60;;
56083;SDS011;41958;52.416;13.428;2022-09-12T03:50:48;7.90;;;5.45;;
56083;SDS011;41958;52.416;13.428;2022-09-12T03:53:13;8.07;;;5.22;;
56083;SDS011;41958;52.416;13.428;2022-09-12T03:55:39;9.35;;;6.00;;
56083;SDS011;41958;52.416;13.428;2022-09-12T03:58:04;9.10;;;5.80;;
56083;SDS011;41958;52.416;13.428;2022-09-12T04:00:29;8.80;;;6.40;;
56083;SDS011;41958;52.416;13.428;2022-09-12T04:02:55;8.77;;;6.00;;
56083;SDS011;41958;52.416;13.428;2022-09-12T04:05:21;7.88;;;5.95;;
56083;SDS011;41958;52.416;13.428;2022-09-12T04:07:47;8.55;;;5.32;;
56083;SDS011;41958;52.416;13.428;2022-09-12T04:10:12;7.10;;;5.10;;
56083;SDS011;41958;52.416;13.428;2022-09-12T04:12:37;6.72;;;5.00;;
56083;SDS011;41958;52.416;13.428;2022-09-12T04:15:03;8.55;;;5.03;;
56083;SDS011;41958;52.416;13.428;2022-09-12T04:17:30;6.32;;;4.68;;
56083;SDS011;41958;52.416;13.428;2022-09-12T04:19:55;7.57;;;4.80;;
56083;SDS011;41958;52.416;13.428;2022-09-12T04:22:20;5.13;;;4.45;;
56083;SDS011;41958;52.416;13.428;2022-09-12T04:24:45;5.85;;;4.57;;
56083;SDS011;41958;52.416;13.428;2022-09-12T04:27:10;6.15;;;4.60;;
56083;SDS011;41958;52.416;13.428;2022-09-12T04:29:36;7.13;;;5.07;;
56083;SDS011;41958;52.416;13.428;2022-09-12T04:32:01;6.32;;;4.68;;
56083;SDS011;41958;52.416;13.428;2022-09-12T04:34:29;8.15;;;5.72;;
56083;SDS011;41958;52.416;13.428;2022-09-12T04:36:55;6.60;;;5.20;;
56083;SDS011;41958;52.416;13.428;2022-09-12T04:39:20;6.57;;;4.57;;
56083;SDS011;41958;52.416;13.428;2022-09-12T04:41:45;6.93;;;5.25;;
56083;SDS011;41958;52.416;13.428;2022-09-12T04:44:11;8.82;;;5.00;;
56083;SDS011;41958;52.416;13.428;2022-09-12T04:46:39;7.07;;;5.07;;
56083;SDS011;41958;52.416;13.428;2022-09-12T04:49:06;6.32;;;4.85;;
56083;SDS011;41958;52.416;13.428;2022-09-12T04:51:33;7.43;;;5.00;;
56083;SDS011;41958;52.416;13.428;2022-09-12T04:54:04;6.18;;;4.60;;
56083;SDS011;41958;52.416;13.428;2022-09-12T04:56:31;7.40;;;5.05;;
56083;SDS011;41958;52.416;13.428;2022-09-12T04:58:58;7.55;;;5.20;;
56083;SDS011;41958;52.416;13.428;2022-09-12T05:01:25;6.43;;;5.28;;
56083;SDS011;41958;52.416;13.428;2022-09-12T05:03:52;7.65;;;5.82;;
56083;SDS011;41958;52.416;13.428;2022-09-12T05:06:18;6.90;;;5.35;;
56083;SDS011;41958;52.416;13.428;2022-09-12T05:08:45;8.38;;;5.45;;
56083;SDS011;41958;52.416;13.428;2022-09-12T05:11:15;8.90;;;5.22;;
56083;SDS011;41958;52.416;13.428;2022-09-12T05:13:42;7.68;;;5.10;;
56083;SDS011;41958;52.416;13.428;2022-09-12T05:16:09;7.00;;;5.65;;
56083;SDS011;41958;52.416;13.428;2022-09-12T05:18:36;10.43;;;6.18;;
56083;SDS011;41958;52.416;13.428;2022-09-12T05:21:03;7.88;;;5.90;;
56083;SDS011;41958;52.416;13.428;2022-09-12T05:23:30;7.65;;;5.50;;
56083;SDS011;41958;52.416;13.428;2022-09-12T05:25:56;7.35;;;5.40;;
56083;SDS011;41958;52.416;13.428;2022-09-12T05:28:22;8.63;;;6.10;;
56083;SDS011;41958;52.416;13.428;2022-09-12T05:30:58;6.45;;;5.63;;
56083;SDS011;41958;52.416;13.428;2022-09-12T05:33:27;9.10;;;5.93;;
56083;SDS011;41958;52.416;13.428;2022-09-12T05:35:53;8.63;;;6.43;;
56083;SDS011;41958;52.416;13.428;2022-09-12T05:38:18;8.68;;;6.45;;
56083;SDS011;41958;52.416;13.428;2022-09-12T05:40:43;10.45;;;7.70;;
56083;SDS011;41958;52.416;13.428;2022-09-12T05:43:08;10.10;;;7.00;;
56083;SDS011;41958;52.416;13.428;2022-09-12T05:45:36;9.70;;;7.18;;
56083;SDS011;41958;52.416;13.428;2022-09-12T05:48:01;10.63;;;7.80;;
56083;SDS011;41958;52.416;13.428;2022-09-12T05:50:27;10.57;;;7.75;;
56083;SDS011;41958;52.416;13.428;2022-09-12T05:52:53;9.65;;;7.03;;
56083;SDS011;41958;52.416;13.428;2022-09-12T05:55:18;10.02;;;7.80;;
56083;SDS011;41958;52.416;13.428;2022-09-12T05:57:44;11.35;;;7.53;;
56083;SDS011;41958;52.416;13.428;2022-09-12T06:00:10;10.23;;;7.25;;
56083;SDS011;41958;52.416;13.428;2022-09-12T06:02:36;9.85;;;7.70;;
56083;SDS011;41958;52.416;13.428;2022-09-12T06:05:02;9.43;;;7.05;;
56083;SDS011;41958;52.416;13.428;2022-09-12T06:07:27;9.05;;;7.30;;
56083;SDS011;41958;52.416;13.428;2022-09-12T06:09:53;12.50;;;7.35;;
56083;SDS011;41958;52.416;13.428;2022-09-12T06:12:18;9.65;;;7.05;;
56083;SDS011;41958;52.416;13.428;2022-09-12T06:14:43;8.40;;;7.03;;
56083;SDS011;41958;52.416;13.428;2022-09-12T06:17:09;10.15;;;6.57;;
56083;SDS011;41958;52.416;13.428;2022-09-12T06:19:34;9.43;;;6.85;;
56083;SDS011;41958;52.416;13.428;2022-09-12T06:21:59;9.23;;;6.28;;
56083;SDS011;41958;52.416;13.428;2022-09-12T06:24:25;8.20;;;6.03;;
56083;SDS011;41958;52.416;13.428;2022-09-12T06:26:51;7.53;;;6.15;;
56083;SDS011;41958;52.416;13.428;2022-09-12T06:29:17;8.57;;;5.70;;
56083;SDS011;41958;52.416;13.428;2022-09-12T06:31:43;8.05;;;5.68;;
56083;SDS011;41958;52.416;13.428;2022-09-12T06:34:10;7.97;;;5.82;;
56083;SDS011;41958;52.416;13.428;2022-09-12T06:36:37;7.68;;;5.70;;
56083;SDS011;41958;52.416;13.428;2022-09-12T06:39:06;7.05;;;4.97;;
56083;SDS011;41958;52.416;13.428;2022-09-12T06:41:34;8.05;;;6.15;;
56083;SDS011;41958;52.416;13.428;2022-09-12T06:43:59;8.25;;;5.45;;
56083;SDS011;41958;52.416;13.428;2022-09-12T06:46:25;10.70;;;5.80;;
56083;SDS011;41958;52.416;13.428;2022-09-12T06:48:51;6.95;;;5.45;;
56083;SDS011;41958;52.416;13.428;2022-09-12T06:51:19;7.10;;;5.00;;
56083;SDS011;41958;52.416;13.428;2022-09-12T06:53:45;8.40;;;5.68;;
56083;SDS011;41958;52.416;13.428;2022-09-12T06:56:12;8.02;;;5.53;;
56083;SDS011;41958;52.416;13.428;2022-09-12T06:58:39;8.40;;;5.95;;
56083;SDS011;41958;52.416;13.428;2022-09-12T07:01:26;8.75;;;6.18;;
56083;SDS011;41958;52.416;13.428;2022-09-12T07:03:55;7.47;;;5.30;;
56083;SDS011;41958;52.416;13.428;2022-09-12T07:06:23;9.63;;;6.15;;
56083;SDS011;41958;52.416;13.428;2022-09-12T07:08:56;8.20;;;5.07;;
56083;SDS011;41958;52.416;13.428;2022-09-12T07:11:24;6.82;;;4.93;;
56083;SDS011;41958;52.416;13.428;2022-09-12T07:13:52;8.90;;;5.03;;
56083;SDS011;41958;52.416;13.428;2022-09-12T07:16:19;7.72;;;5.50;;
56083;SDS011;41958;52.416;13.428;2022-09-12T07:18:48;6.63;;;5.10;;
56083;SDS011;41958;52.416;13.428;2022-09-12T07:21:14;7.95;;;4.95;;
56083;SDS011;41958;52.416;13.428;2022-09-12T07:23:40;8.38;;;5.00;;
56083;SDS011;41958;52.416;13.428;2022-09-12T07:26:06;7.70;;;5.03;;
56083;SDS011;41958;52.416;13.428;2022-09-12T07:28:32;5.07;;;4.25;;
56083;SDS011;41958;52.416;13.428;2022-09-12T07:31:04;5.65;;;4.35;;
56083;SDS011;41958;52.416;13.428;2022-09-12T07:33:31;8.07;;;5.45;;
56083;SDS011;41958;52.416;13.428;2022-09-12T07:35:59;9.80;;;4.97;;
56083;SDS011;41958;52.416;13.428;2022-09-12T07:38:26;7.00;;;4.93;;
56083;SDS011;41958;52.416;13.428;2022-09-12T07:40:51;6.78;;;4.80;;
56083;SDS011;41958;52.416;13.428;2022-09-12T07:43:16;8.13;;;4.05;;
56083;SDS011;41958;52.416;13.428;2022-09-12T07:45:42;7.75;;;4.28;;
56083;SDS011;41958;52.416;13.428;2022-09-12T07:48:07;5.85;;;4.30;;
56083;SDS011;41958;52.416;13.428;2022-09-12T07:50:33;6.32;;;3.97;;
56083;SDS011;41958;52.416;13.428;2022-09-12T07:53:00;4.03;;;3.65;;
56083;SDS011;41958;52.416;13.428;2022-09-12T07:55:27;3.50;;;3.00;;
56083;SDS011;41958;52.416;13.428;2022-09-12T07:57:52;5.13;;;4.00;;
56083;SDS011;41958;52.416;13.428;2022-09-12T08:00:17;6.53;;;3.38;;
56083;SDS011;41958;52.416;13.428;2022-09-12T08:02:43;5.75;;;3.97;;
56083;SDS011;41958;52.416;13.428;2022-09-12T08:05:08;3.70;;;3.30;;
56083;SDS011;41958;52.416;13.428;2022-09-12T08:07:34;4.90;;;3.33;;
56083;SDS011;41958;52.416;13.428;2022-09-12T08:10:00;3.55;;;3.25;;
56083;SDS011;41958;52.416;13.428;2022-09-12T08:12:28;4.82;;;3.40;;
56083;SDS011;41958;52.416;13.428;2022-09-12T08:14:56;4.28;;;2.90;;
56083;SDS011;41958;52.416;13.428;2022-09-12T08:17:21;4.25;;;3.40;;
56083;SDS011;41958;52.416;13.428;2022-09-12T08:19:46;3.75;;;2.97;;
56083;SDS011;41958;52.416;13.428;2022-09-12T08:22:12;4.65;;;2.85;;
56083;SDS011;41958;52.416;13.428;2022-09-12T08:24:37;4.45;;;2.20;;
56083;SDS011;41958;52.416;13.428;2022-09-12T08:27:03;3.42;;;2.70;;
56083;SDS011;41958;52.416;13.428;2022-09-12T08:29:29;3.97;;;2.00;;
56083;SDS011;41958;52.416;13.428;2022-09-12T08:31:55;2.30;;;1.35;;
56083;SDS011;41958;52.416;13.428;2022-09-12T08:34:20;2.53;;;1.58;;
56083;SDS011;41958;52.416;13.428;2022-09-12T08:36:45;3.08;;;2.05;;
56083;SDS011;41958;52.416;13.428;2022-09-12T08:39:11;5.07;;;2.03;;
56083;SDS011;41958;52.416;13.428;2022-09-12T08:41:48;2.33;;;1.83;;
56083;SDS011;41958;52.416;13.428;2022-09-12T08:55:42;2.63;;;1.45;;
56083;SDS011;41958;52.416;13.428;2022-09-12T08:58:11;2.55;;;1.65;;
56083;SDS011;41958;52.416;13.428;2022-09-12T09:00:40;1.45;;;1.20;;
56083;SDS011;41958;52.416;13.428;2022-09-12T09:06:15;4.75;;;2.00;;
56083;SDS011;41958;52.416;13.428;2022-09-12T09:14:36;1.52;;;1.15;;
56083;SDS011;41958;52.416;13.428;2022-09-12T09:17:23;3.58;;;1.15;;
56083;SDS011;41958;52.416;13.428;2022-09-12T09:19:52;2.20;;;1.35;;
56083;SDS011;41958;52.416;13.428;2022-09-12T09:25:19;1.48;;;1.00;;
56083;SDS011;41958;52.416;13.428;2022-09-12T09:27:50;1.48;;;1.00;;
56083;SDS011;41958;52.416;13.428;2022-09-12T09:30:21;1.88;;;1.38;;
56083;SDS011;41958;52.416;13.428;2022-09-12T09:32:51;3.50;;;1.20;;
56083;SDS011;41958;52.416;13.428;2022-09-12T09:43:27;3.10;;;1.25;;
56083;SDS011;41958;52.416;13.428;2022-09-12T09:45:53;0.80;;;0.70;;
56083;SDS011;41958;52.416;13.428;2022-09-12T09:48:19;2.28;;;0.70;;
56083;SDS011;41958;52.416;13.428;2022-09-12T09:50:49;1.30;;;0.77;;
56083;SDS011;41958;52.416;13.428;2022-09-12T09:55:50;2.28;;;0.50;;
56083;SDS011;41958;52.416;13.428;2022-09-12T09:58:28;1.35;;;0.57;;
56083;SDS011;41958;52.416;13.428;2022-09-12T10:01:05;1.88;;;0.50;;
56083;SDS011;41958;52.416;13.428;2022-09-12T10:03:38;0.75;;;0.60;;
56083;SDS011;41958;52.416;13.428;2022-09-12T10:08:44;1.33;;;0.40;;
56083;SDS011;41958;52.416;13.428;2022-09-12T10:13:40;0.88;;;0.55;;
56083;SDS011;41958;52.416;13.428;2022-09-12T10:16:17;3.28;;;0.70;;
56083;SDS011;41958;52.416;13.428;2022-09-12T10:18:45;0.98;;;0.50;;
56083;SDS011;41958;52.416;13.428;2022-09-12T10:21:12;0.73;;;0.50;;
56083;SDS011;41958;52.416;13.428;2022-09-12T10:23:40;1.90;;;0.57;;
56083;SDS011;41958;52.416;13.428;2022-09-12T10:26:13;2.78;;;0.50;;
56083;SDS011;41958;52.416;13.428;2022-09-12T10:28:41;1.35;;;0.57;;
56083;SDS011;41958;52.416;13.428;2022-09-12T10:31:15;0.90;;;0.50;;
56083;SDS011;41958;52.416;13.428;2022-09-12T10:33:52;0.60;;;0.60;;
56083;SDS011;41958;52.416;13.428;2022-09-12T10:36:20;1.35;;;0.50;;
56083;SDS011;41958;52.416;13.428;2022-09-12T10:38:48;2.35;;;0.60;;
56083;SDS011;41958;52.416;13.428;2022-09-12T10:41:15;1.27;;;0.57;;
56083;SDS011;41958;52.416;13.428;2022-09-12T10:43:42;0.70;;;0.50;;
56083;SDS011;41958;52.416;13.428;2022-09-12T10:48:42;0.75;;;0.57;;
56083;SDS011;41958;52.416;13.428;2022-09-12T10:51:32;0.60;;;0.60;;
56083;SDS011;41958;52.416;13.428;2022-09-12T10:53:58;0.90;;;0.68;;
56083;SDS011;41958;52.416;13.428;2022-09-12T10:56:29;0.60;;;0.60;;
56083;SDS011;41958;52.416;13.428;2022-09-12T10:59:00;1.67;;;0.40;;
56083;SDS011;41958;52.416;13.428;2022-09-12T11:07:13;1.02;;;0.55;;
56083;SDS011;41958;52.416;13.428;2022-09-12T11:09:47;0.65;;;0.52;;
56083;SDS011;41958;52.416;13.428;2022-09-12T11:12:29;4.20;;;1.48;;
56083;SDS011;41958;52.416;13.428;2022-09-12T11:17:55;0.50;;;0.50;;
56083;SDS011;41958;52.416;13.428;2022-09-12T11:25:51;0.65;;;0.60;;
56083;SDS011;41958;52.416;13.428;2022-09-12T11:31:03;0.60;;;0.60;;
56083;SDS011;41958;52.416;13.428;2022-09-12T11:33:49;2.72;;;0.60;;
56083;SDS011;41958;52.416;13.428;2022-09-12T11:36:26;1.42;;;0.60;;
56083;SDS011;41958;52.416;13.428;2022-09-12T11:42:12;0.57;;;0.52;;
56083;SDS011;41958;52.416;13.428;2022-09-12T11:44:44;5.50;;;0.95;;
56083;SDS011;41958;52.416;13.428;2022-09-12T11:47:12;0.50;;;0.50;;
56083;SDS011;41958;52.416;13.428;2022-09-12T11:49:40;0.77;;;0.60;;
56083;SDS011;41958;52.416;13.428;2022-09-12T11:52:15;1.25;;;0.50;;
56083;SDS011;41958;52.416;13.428;2022-09-12T12:00:19;1.63;;;0.65;;
56083;SDS011;41958;52.416;13.428;2022-09-12T12:03:10;0.50;;;0.50;;
56083;SDS011;41958;52.416;13.428;2022-09-12T12:06:01;1.77;;;0.52;;
56083;SDS011;41958;52.416;13.428;2022-09-12T12:08:30;0.47;;;0.47;;
56083;SDS011;41958;52.416;13.428;2022-09-12T12:11:00;1.17;;;0.43;;
56083;SDS011;41958;52.416;13.428;2022-09-12T12:13:29;0.70;;;0.40;;
56083;SDS011;41958;52.416;13.428;2022-09-12T12:16:06;1.02;;;0.50;;
56083;SDS011;41958;52.416;13.428;2022-09-12T12:18:38;2.70;;;0.52;;
56083;SDS011;41958;52.416;13.428;2022-09-12T12:21:21;0.68;;;0.50;;
56083;SDS011;41958;52.416;13.428;2022-09-12T12:34:32;1.35;;;0.60;;
56083;SDS011;41958;52.416;13.428;2022-09-12T12:42:09;0.70;;;0.50;;
56083;SDS011;41958;52.416;13.428;2022-09-12T12:47:24;1.35;;;0.50;;
56083;SDS011;41958;52.416;13.428;2022-09-12T12:50:00;0.85;;;0.55;;
56083;SDS011;41958;52.416;13.428;2022-09-12T12:52:30;0.95;;;0.55;;
56083;SDS011;41958;52.416;13.428;2022-09-12T12:54:57;1.13;;;0.40;;
56083;SDS011;41958;52.416;13.428;2022-09-12T12:59:58;0.50;;;0.45;;
56083;SDS011;41958;52.416;13.428;2022-09-12T13:02:36;0.93;;;0.52;;
56083;SDS011;41958;52.416;13.428;2022-09-12T13:05:06;0.98;;;0.50;;
56083;SDS011;41958;52.416;13.428;2022-09-12T13:07:44;1.45;;;0.57;;
56083;SDS011;41958;52.416;13.428;2022-09-12T13:10:20;1.17;;;0.60;;
56083;SDS011;41958;52.416;13.428;2022-09-12T13:12:47;1.20;;;0.55;;
56083;SDS011;41958;52.416;13.428;2022-09-12T13:18:03;1.13;;;0.40;;
56083;SDS011;41958;52.416;13.428;2022-09-12T13:20:32;1.50;;;0.50;;
56083;SDS011;41958;52.416;13.428;2022-09-12T13:23:02;0.60;;;0.52;;
56083;SDS011;41958;52.416;13.428;2022-09-12T13:30:36;1.73;;;0.50;;
56083;SDS011;41958;52.416;13.428;2022-09-12T13:33:09;0.45;;;0.45;;
56083;SDS011;41958;52.416;13.428;2022-09-12T13:38:54;1.27;;;0.60;;
56083;SDS011;41958;52.416;13.428;2022-09-12T13:41:39;1.08;;;0.43;;
56083;SDS011;41958;52.416;13.428;2022-09-12T13:44:13;1.48;;;0.50;;
56083;SDS011;41958;52.416;13.428;2022-09-12T13:46:41;0.60;;;0.60;;
56083;SDS011;41958;52.416;13.428;2022-09-12T13:49:16;0.60;;;0.60;;
56083;SDS011;41958;52.416;13.428;2022-09-12T13:51:51;2.05;;;0.68;;
56083;SDS011;41958;52.416;13.428;2022-09-12T13:54:20;0.50;;;0.50;;
56083;SDS011;41958;52.416;13.428;2022-09-12T13:56:46;0.80;;;0.60;;
56083;SDS011;41958;52.416;13.428;2022-09-12T13:59:12;2.95;;;0.80;;
56083;SDS011;41958;52.416;13.428;2022-09-12T14:01:39;0.75;;;0.50;;
56083;SDS011;41958;52.416;13.428;2022-09-12T14:04:13;0.68;;;0.40;;
56083;SDS011;41958;52.416;13.428;2022-09-12T14:07:09;1.65;;;0.50;;
56083;SDS011;41958;52.416;13.428;2022-09-12T14:09:38;0.77;;;0.50;;
56083;SDS011;41958;52.416;13.428;2022-09-12T14:12:22;0.60;;;0.60;;
56083;SDS011;41958;52.416;13.428;2022-09-12T14:14:51;0.63;;;0.57;;
56083;SDS011;41958;52.416;13.428;2022-09-12T14:17:17;1.10;;;0.40;;
56083;SDS011;41958;52.416;13.428;2022-09-12T14:19:49;0.50;;;0.50;;
56083;SDS011;41958;52.416;13.428;2022-09-12T14:22:16;1.45;;;0.65;;
56083;SDS011;41958;52.416;13.428;2022-09-12T14:24:51;1.30;;;0.45;;
56083;SDS011;41958;52.416;13.428;2022-09-12T14:27:17;0.60;;;0.50;;
56083;SDS011;41958;52.416;13.428;2022-09-12T14:29:54;0.63;;;0.50;;
56083;SDS011;41958;52.416;13.428;2022-09-12T14:32:26;0.50;;;0.50;;
56083;SDS011;41958;52.416;13.428;2022-09-12T14:37:35;2.00;;;0.60;;
56083;SDS011;41958;52.416;13.428;2022-09-12T14:40:02;1.13;;;0.50;;
56083;SDS011;41958;52.416;13.428;2022-09-12T14:42:39;0.50;;;0.50;;
56083;SDS011;41958;52.416;13.428;2022-09-12T14:45:11;0.85;;;0.63;;
56083;SDS011;41958;52.416;13.428;2022-09-12T14:47:41;0.55;;;0.50;;
56083;SDS011;41958;52.416;13.428;2022-09-12T14:50:14;1.05;;;0.68;;
56083;SDS011;41958;52.416;13.428;2022-09-12T14:52:41;0.75;;;0.52;;
56083;SDS011;41958;52.416;13.428;2022-09-12T14:55:27;1.50;;;0.70;;
56083;SDS011;41958;52.416;13.428;2022-09-12T14:58:13;1.90;;;0.68;;
56083;SDS011;41958;52.416;13.428;2022-09-12T15:00:51;0.68;;;0.50;;
56083;SDS011;41958;52.416;13.428;2022-09-12T15:03:28;3.03;;;0.60;;
56083;SDS011;41958;52.416;13.428;2022-09-12T15:05:55;0.60;;;0.60;;
56083;SDS011;41958;52.416;13.428;2022-09-12T15:08:22;0.52;;;0.52;;
56083;SDS011;41958;52.416;13.428;2022-09-12T15:10:48;1.35;;;0.57;;
56083;SDS011;41958;52.416;13.428;2022-09-12T15:13:14;1.60;;;0.60;;
56083;SDS011;41958;52.416;13.428;2022-09-12T15:15:44;1.50;;;0.60;;
56083;SDS011;41958;52.416;13.428;2022-09-12T15:18:11;0.57;;;0.55;;
56083;SDS011;41958;52.416;13.428;2022-09-12T15:20:38;0.80;;;0.60;;
56083;SDS011;41958;52.416;13.428;2022-09-12T15:23:06;1.58;;;0.63;;
56083;SDS011;41958;52.416;13.428;2022-09-12T15:25:38;1.30;;;0.75;;
56083;SDS011;41958;52.416;13.428;2022-09-12T15:28:12;0.73;;;0.60;;
56083;SDS011;41958;52.416;13.428;2022-09-12T15:30:41;0.98;;;0.50;;
56083;SDS011;41958;52.416;13.428;2022-09-12T15:33:07;0.70;;;0.52;;
56083;SDS011;41958;52.416;13.428;2022-09-12T15:35:33;2.38;;;0.70;;
56083;SDS011;41958;52.416;13.428;2022-09-12T15:37:59;0.70;;;0.70;;
56083;SDS011;41958;52.416;13.428;2022-09-12T15:40:24;0.85;;;0.75;;
56083;SDS011;41958;52.416;13.428;2022-09-12T15:42:50;1.42;;;0.77;;
56083;SDS011;41958;52.416;13.428;2022-09-12T15:45:23;1.40;;;0.82;;
56083;SDS011;41958;52.416;13.428;2022-09-12T15:47:51;1.85;;;0.77;;
56083;SDS011;41958;52.416;13.428;2022-09-12T15:50:17;0.70;;;0.70;;
56083;SDS011;41958;52.416;13.428;2022-09-12T15:52:43;1.05;;;0.70;;
56083;SDS011;41958;52.416;13.428;2022-09-12T15:55:14;1.73;;;0.70;;
56083;SDS011;41958;52.416;13.428;2022-09-12T15:57:44;1.23;;;0.55;;
56083;SDS011;41958;52.416;13.428;2022-09-12T16:00:10;1.42;;;0.50;;
56083;SDS011;41958;52.416;13.428;2022-09-12T16:02:36;0.65;;;0.60;;
56083;SDS011;41958;52.416;13.428;2022-09-12T16:05:03;2.05;;;0.60;;
56083;SDS011;41958;52.416;13.428;2022-09-12T16:07:29;0.60;;;0.60;;
56083;SDS011;41958;52.416;13.428;2022-09-12T16:09:54;1.00;;;0.50;;
56083;SDS011;41958;52.416;13.428;2022-09-12T16:12:19;0.68;;;0.68;;
56083;SDS011;41958;52.416;13.428;2022-09-12T16:14:44;0.90;;;0.75;;
56083;SDS011;41958;52.416;13.428;2022-09-12T16:17:10;3.42;;;0.80;;
56083;SDS011;41958;52.416;13.428;2022-09-12T16:19:35;1.65;;;0.70;;
56083;SDS011;41958;52.416;13.428;2022-09-12T16:22:00;0.88;;;0.70;;
56083;SDS011;41958;52.416;13.428;2022-09-12T16:24:26;1.00;;;0.73;;
56083;SDS011;41958;52.416;13.428;2022-09-12T16:26:51;0.95;;;0.70;;
56083;SDS011;41958;52.416;13.428;2022-09-12T16:29:16;3.10;;;0.88;;
56083;SDS011;41958;52.416;13.428;2022-09-12T16:31:41;0.70;;;0.70;;
56083;SDS011;41958;52.416;13.428;2022-09-12T16:34:06;1.30;;;0.80;;
56083;SDS011;41958;52.416;13.428;2022-09-12T16:36:32;0.95;;;0.80;;
56083;SDS011;41958;52.416;13.428;2022-09-12T16:38:57;0.95;;;0.80;;
56083;SDS011;41958;52.416;13.428;2022-09-12T16:41:23;1.13;;;0.60;;
56083;SDS011;41958;52.416;13.428;2022-09-12T16:43:51;0.93;;;0.80;;
56083;SDS011;41958;52.416;13.428;2022-09-12T16:46:21;3.33;;;1.02;;
56083;SDS011;41958;52.416;13.428;2022-09-12T16:48:49;3.60;;;1.13;;
56083;SDS011;41958;52.416;13.428;2022-09-12T16:51:19;2.15;;;1.13;;
56083;SDS011;41958;52.416;13.428;2022-09-12T16:53:47;2.67;;;1.20;;
56083;SDS011;41958;52.416;13.428;2022-09-12T16:56:13;2.05;;;1.10;;
56083;SDS011;41958;52.416;13.428;2022-09-12T16:58:39;2.22;;;0.77;;